createdAt,value
2022-09-11T00:01:16.364Z,70.58
2022-09-11T00:03:44.808Z,70.73
2022-09-11T00:06:14.359Z,70.78
2022-09-11T00:08:42.477Z,70.34
2022-09-11T00:11:11.175Z,70.27
2022-09-11T00:13:39.758Z,69.76
2022-09-11T00:16:17.812Z,69.92
2022-09-11T00:18:44.805Z,69.99
2022-09-11T00:21:11.489Z,69.67
2022-09-11T00:23:38.408Z,69.29
2022-09-11T00:26:06.229Z,69.60
2022-09-11T00:28:34.475Z,69.53
2022-09-11T00:31:05.357Z,69.49
2022-09-11T00:33:33.537Z,69.35
2022-09-11T00:36:03.946Z,69.42
2022-09-11T00:38:33.040Z,69.32
2022-09-11T00:41:01.665Z,69.46
2022-09-11T00:43:30.472Z,70.00
2022-09-11T00:46:04.106Z,69.83
2022-09-11T00:48:34.117Z,69.84
2022-09-11T00:51:04.594Z,70.11
2022-09-11T00:53:36.208Z,70.03
2022-09-11T00:56:08.228Z,69.68
2022-09-11T00:58:39.493Z,69.53
2022-09-11T01:01:06.553Z,69.63
2022-09-11T01:03:33.687Z,69.40
2022-09-11T01:06:00.837Z,69.40
2022-09-11T01:08:28.833Z,69.63
2022-09-11T01:11:13.468Z,69.75
2022-09-11T01:14:09.210Z,70.05
2022-09-11T01:16:56.802Z,70.14
2022-09-11T01:20:07.780Z,70.16
2022-09-11T01:22:53.776Z,70.00
2022-09-11T01:25:57.175Z,69.58
2022-09-11T01:28:33.791Z,68.97
2022-09-11T01:31:08.091Z,68.90
2022-09-11T01:33:38.042Z,68.89
2022-09-11T01:36:10.334Z,68.32
2022-09-11T01:38:43.568Z,68.50
2022-09-11T01:41:21.715Z,68.74
2022-09-11T01:43:57.090Z,68.50
2022-09-11T01:46:28.009Z,68.37
2022-09-11T01:49:08.790Z,68.64
2022-09-11T01:51:38.299Z,68.67
2022-09-11T01:54:11.486Z,68.88
2022-09-11T01:56:45.600Z,68.97
2022-09-11T01:59:19.648Z,69.16
2022-09-11T02:01:54.284Z,69.36
2022-09-11T02:04:29.870Z,69.14
2022-09-11T02:07:06.028Z,69.11
2022-09-11T02:09:39.851Z,69.24
2022-09-11T02:12:11.408Z,68.89
2022-09-11T02:14:49.066Z,69.00
2022-09-11T02:17:36.610Z,68.91
2022-09-11T02:20:05.735Z,69.35
2022-09-11T02:22:32.544Z,69.52
2022-09-11T02:25:02.495Z,69.30
2022-09-11T02:27:31.948Z,69.35
2022-09-11T02:30:01.122Z,69.34
2022-09-11T02:32:32.500Z,69.41
2022-09-11T02:35:00.365Z,69.06
2022-09-11T02:38:20.264Z,69.18
2022-09-11T02:41:09.167Z,69.29
2022-09-11T02:44:11.452Z,69.18
2022-09-11T02:47:12.002Z,69.47
2022-09-11T02:49:41.406Z,69.35
2022-09-11T02:52:49.407Z,69.13
2022-09-11T02:55:19.143Z,69.24
2022-09-11T02:58:02.533Z,69.42
2022-09-11T03:00:31.505Z,69.42
2022-09-11T03:02:58.350Z,69.22
2022-09-11T03:05:25.936Z,69.24
2022-09-11T03:07:52.638Z,69.17
2022-09-11T03:10:20.415Z,69.00
2022-09-11T03:12:47.175Z,68.68
2022-09-11T03:15:16.084Z,68.57
2022-09-11T03:17:42.930Z,68.64
2022-09-11T03:20:09.912Z,68.27
2022-09-11T03:22:36.706Z,68.41
2022-09-11T03:25:03.904Z,68.45
2022-09-11T03:27:31.620Z,68.23
2022-09-11T03:29:59.381Z,67.76
2022-09-11T03:32:26.116Z,67.71
2022-09-11T03:34:55.334Z,68.05
2022-09-11T03:37:22.073Z,67.86
2022-09-11T03:39:48.848Z,67.60
2022-09-11T03:42:15.947Z,67.69
2022-09-11T03:44:42.737Z,67.53
2022-09-11T03:47:12.443Z,67.43
2022-09-11T03:49:39.801Z,67.13
2022-09-11T03:52:06.729Z,67.05
2022-09-11T03:54:34.466Z,67.20
2022-09-11T03:57:01.778Z,67.04
2022-09-11T03:59:29.205Z,67.04
2022-09-11T04:01:56.066Z,67.35
2022-09-11T04:04:23.668Z,67.51
2022-09-11T04:06:50.955Z,67.88
2022-09-11T04:09:18.562Z,67.94
2022-09-11T04:11:47.323Z,68.14
2022-09-11T04:14:22.523Z,68.57
2022-09-11T04:16:50.294Z,68.36
2022-09-11T04:19:18.963Z,68.39
2022-09-11T04:21:45.864Z,68.52
2022-09-11T04:24:13.120Z,68.74
2022-09-11T04:26:39.906Z,68.49
2022-09-11T04:29:13.070Z,68.58
2022-09-11T04:31:41.401Z,68.20
2022-09-11T04:34:09.777Z,68.32
2022-09-11T04:36:37.755Z,68.58
2022-09-11T04:39:05.991Z,68.51
2022-09-11T04:41:32.760Z,68.41
2022-09-11T04:44:05.191Z,68.38
2022-09-11T04:46:34.654Z,68.62
2022-09-11T04:49:03.474Z,68.82
2022-09-11T04:51:34.850Z,68.37
2022-09-11T04:54:02.270Z,68.40
2022-09-11T04:56:39.964Z,68.58
2022-09-11T04:59:19.602Z,68.34
2022-09-11T05:02:06.541Z,68.49
2022-09-11T05:04:37.479Z,68.34
2022-09-11T05:07:04.600Z,68.55
2022-09-11T05:09:31.374Z,68.42
2022-09-11T05:11:58.843Z,68.37
2022-09-11T05:14:32.834Z,68.36
2022-09-11T05:17:02.075Z,68.00
2022-09-11T05:19:30.277Z,67.59
2022-09-11T05:21:57.614Z,66.72
2022-09-11T05:24:25.195Z,66.31
2022-09-11T05:26:52.508Z,66.36
2022-09-11T05:29:19.675Z,66.15
2022-09-11T05:32:00.891Z,66.17
2022-09-11T05:34:28.978Z,65.81
2022-09-11T05:37:02.280Z,65.48
2022-09-11T05:39:32.678Z,65.12
2022-09-11T05:42:01.869Z,64.59
2022-09-11T05:44:32.493Z,64.16
2022-09-11T05:47:00.276Z,64.25
2022-09-11T05:49:27.316Z,64.70
2022-09-11T05:51:54.064Z,63.96
2022-09-11T05:54:20.896Z,63.39
2022-09-11T05:56:47.974Z,63.43
2022-09-11T05:59:21.993Z,62.98
2022-09-11T06:01:50.459Z,62.68
2022-09-11T06:04:31.513Z,62.62
2022-09-11T06:06:59.948Z,61.98
2022-09-11T06:09:28.248Z,62.41
2022-09-11T06:11:55.108Z,62.77
2022-09-11T06:14:22.113Z,62.27
2022-09-11T06:16:50.458Z,62.32
2022-09-11T06:19:17.370Z,62.58
2022-09-11T06:21:45.527Z,62.83
2022-09-11T06:24:24.945Z,63.04
2022-09-11T06:26:51.901Z,63.44
2022-09-11T06:29:19.541Z,63.45
2022-09-11T06:31:51.391Z,63.41
2022-09-11T06:34:22.596Z,63.25
2022-09-11T06:36:52.352Z,62.87
2022-09-11T06:39:22.910Z,62.34
2022-09-11T06:41:50.583Z,62.26
2022-09-11T06:44:18.656Z,62.45
2022-09-11T06:46:46.652Z,62.49
2022-09-11T06:49:14.517Z,63.05
2022-09-11T06:51:59.714Z,63.11
2022-09-11T06:54:27.379Z,63.32
2022-09-11T06:56:55.928Z,63.67
2022-09-11T06:59:24.590Z,63.16
2022-09-11T07:01:52.424Z,63.71
2022-09-11T07:04:20.181Z,63.38
2022-09-11T07:06:50.127Z,63.68
2022-09-11T07:09:17.429Z,63.67
2022-09-11T07:11:50.270Z,63.90
2022-09-11T07:14:21.427Z,63.98
2022-09-11T07:16:52.979Z,63.81
2022-09-11T07:19:19.932Z,63.72
2022-09-11T07:21:47.068Z,63.47
2022-09-11T07:24:14.521Z,63.52
2022-09-11T07:26:44.254Z,63.03
2022-09-11T07:29:20.183Z,62.95
2022-09-11T07:31:49.330Z,63.11
2022-09-11T07:34:19.904Z,62.84
2022-09-11T07:36:48.011Z,62.75
2022-09-11T07:39:14.640Z,62.28
2022-09-11T07:41:53.533Z,61.93
2022-09-11T07:44:25.504Z,62.26
2022-09-11T07:46:53.237Z,61.74
2022-09-11T07:56:06.865Z,61.78
2022-09-11T07:58:35.842Z,61.08
2022-09-11T08:01:05.214Z,61.02
2022-09-11T08:03:34.529Z,61.32
2022-09-11T08:06:03.834Z,61.54
2022-09-11T08:08:31.269Z,60.75
2022-09-11T08:11:24.571Z,60.40
2022-09-11T08:13:54.508Z,60.42
2022-09-11T08:16:26.428Z,60.31
2022-09-11T08:19:22.166Z,59.81
2022-09-11T08:22:14.354Z,59.59
2022-09-11T08:25:03.643Z,58.46
2022-09-11T08:27:31.169Z,57.37
2022-09-11T08:29:58.035Z,57.14
2022-09-11T08:32:25.384Z,57.11
2022-09-11T08:34:52.198Z,55.77
2022-09-11T08:37:20.330Z,54.09
2022-09-11T08:39:47.590Z,52.40
2022-09-11T08:42:16.698Z,50.05
2022-09-11T08:44:54.142Z,51.82
2022-09-11T08:47:39.145Z,51.46
2022-09-11T08:50:08.820Z,53.58
2022-09-11T08:52:37.080Z,55.81
2022-09-11T08:55:13.595Z,56.60
2022-09-11T08:57:57.961Z,55.51
2022-09-11T09:00:42.912Z,55.17
2022-09-11T09:03:31.337Z,55.90
2022-09-11T09:06:25.977Z,55.98
2022-09-11T09:09:07.412Z,55.70
2022-09-11T09:11:50.157Z,55.01
2022-09-11T09:14:54.871Z,54.37
2022-09-11T09:17:27.074Z,56.12
2022-09-11T09:20:06.247Z,56.03
2022-09-11T09:22:39.235Z,55.27
2022-09-11T09:25:12.311Z,54.74
2022-09-11T09:27:47.098Z,55.49
2022-09-11T09:30:22.098Z,55.57
2022-09-11T09:32:58.589Z,56.79
2022-09-11T09:35:34.305Z,54.08
2022-09-11T09:38:01.303Z,54.07
2022-09-11T09:40:31.670Z,54.36
2022-09-11T09:43:38.702Z,54.92
2022-09-11T09:46:18.325Z,52.50
2022-09-11T09:48:45.213Z,52.04
2022-09-11T09:51:13.500Z,53.84
2022-09-11T09:53:55.655Z,51.57
2022-09-11T09:56:26.301Z,51.24
2022-09-11T09:59:03.118Z,51.46
2022-09-11T10:01:44.892Z,51.26
2022-09-11T10:04:20.308Z,51.07
2022-09-11T10:06:49.585Z,50.59
2022-09-11T10:09:28.857Z,51.00
2022-09-11T10:12:03.615Z,50.44
2022-09-11T10:14:51.465Z,51.85
2022-09-11T10:17:33.242Z,50.86
2022-09-11T10:20:15.918Z,49.10
2022-09-11T10:22:43.337Z,49.32
2022-09-11T10:25:26.549Z,49.29
2022-09-11T10:28:25.524Z,48.99
2022-09-11T10:30:53.329Z,50.10
2022-09-11T10:33:40.247Z,49.69
2022-09-11T10:36:09.925Z,49.27
2022-09-11T10:38:50.167Z,50.94
2022-09-11T10:41:21.612Z,51.15
2022-09-11T10:43:56.340Z,50.04
2022-09-11T10:46:28.297Z,50.65
2022-09-11T10:49:02.944Z,50.65
2022-09-11T10:51:32.261Z,51.54
2022-09-11T10:54:23.485Z,50.57
2022-09-11T10:57:14.738Z,51.04
2022-09-11T10:59:46.086Z,51.57
2022-09-11T11:02:33.191Z,51.30
2022-09-11T11:05:24.667Z,51.12
2022-09-11T11:08:06.702Z,51.09
2022-09-11T11:10:39.253Z,50.80
2022-09-11T11:13:47.159Z,51.00
2022-09-11T11:16:51.724Z,51.11
2022-09-11T11:19:36.652Z,50.88
2022-09-11T11:22:12.545Z,48.91
2022-09-11T11:24:54.463Z,49.63
2022-09-11T11:27:33.239Z,49.22
2022-09-11T11:30:19.112Z,49.19
2022-09-11T11:32:58.347Z,49.05
2022-09-11T11:35:34.753Z,48.93
2022-09-11T11:38:16.678Z,49.99
2022-09-11T11:40:54.596Z,50.41
2022-09-11T11:43:27.570Z,50.14
2022-09-11T11:46:02.286Z,49.17
2022-09-11T11:48:53.679Z,49.62
2022-09-11T11:51:26.177Z,50.17
2022-09-11T11:54:12.099Z,51.29
2022-09-11T11:56:51.892Z,51.38
2022-09-11T11:59:40.540Z,50.61
2022-09-11T12:02:10.316Z,49.00
2022-09-11T12:04:50.525Z,48.64
2022-09-11T12:07:32.614Z,48.12
2022-09-11T12:10:05.110Z,48.31
2022-09-11T12:12:35.927Z,48.27
2022-09-11T12:15:06.588Z,46.92
2022-09-11T12:17:36.468Z,47.24
2022-09-11T12:20:12.451Z,46.61
2022-09-11T12:22:50.793Z,46.57
2022-09-11T12:25:23.382Z,46.94
2022-09-11T12:28:11.108Z,46.43
2022-09-11T12:30:58.306Z,47.68
2022-09-11T12:33:43.695Z,47.90
2022-09-11T12:36:24.307Z,47.37
2022-09-11T12:39:00.204Z,48.15
2022-09-11T12:41:33.593Z,48.65
2022-09-11T12:44:01.310Z,48.98
2022-09-11T12:46:28.267Z,48.34
2022-09-11T12:49:20.219Z,48.25
2022-09-11T12:51:52.078Z,48.20
2022-09-11T12:54:48.128Z,47.16
2022-09-11T12:57:21.266Z,48.03
2022-09-11T12:59:55.964Z,47.90
2022-09-11T13:02:36.894Z,47.90
2022-09-11T13:05:15.245Z,47.24
2022-09-11T13:07:45.348Z,46.12
2022-09-11T13:10:47.768Z,46.41
2022-09-11T13:13:35.505Z,46.57
2022-09-11T13:16:24.464Z,45.15
2022-09-11T13:18:53.754Z,45.95
2022-09-11T13:21:25.728Z,46.72
2022-09-11T13:23:53.188Z,47.50
2022-09-11T13:26:28.672Z,48.30
2022-09-11T13:28:58.373Z,49.88
2022-09-11T13:31:38.399Z,52.66
2022-09-11T13:34:12.791Z,52.95
2022-09-11T13:36:40.397Z,52.79
2022-09-11T13:39:08.806Z,53.00
2022-09-11T13:41:40.853Z,49.95
2022-09-11T13:44:13.478Z,50.23
2022-09-11T13:46:52.225Z,48.57
2022-09-11T13:49:35.131Z,47.82
2022-09-11T13:52:05.723Z,48.73
2022-09-11T13:54:41.315Z,49.52
2022-09-11T13:57:18.169Z,49.35
2022-09-11T14:00:11.016Z,50.68
2022-09-11T14:02:47.799Z,51.27
2022-09-11T14:05:20.919Z,52.36
2022-09-11T14:07:59.878Z,52.42
2022-09-11T14:10:33.298Z,53.46
2022-09-11T14:13:25.379Z,54.97
2022-09-11T14:15:55.515Z,55.64
2022-09-11T14:18:40.302Z,57.49
2022-09-11T14:21:14.979Z,57.33
2022-09-11T14:23:55.209Z,58.51
2022-09-11T14:26:40.198Z,59.19
2022-09-11T14:29:28.728Z,59.59
2022-09-11T14:32:33.918Z,60.58
2022-09-11T14:35:01.572Z,62.33
2022-09-11T14:37:33.292Z,62.82
2022-09-11T14:40:06.877Z,62.12
2022-09-11T14:42:36.979Z,62.16
2022-09-11T14:45:21.052Z,62.39
2022-09-11T14:47:47.961Z,61.64
2022-09-11T14:50:15.080Z,62.01
2022-09-11T14:52:42.785Z,61.48
2022-09-11T14:55:18.191Z,61.30
2022-09-11T14:57:46.900Z,61.15
2022-09-11T15:00:15.374Z,60.39
2022-09-11T15:02:42.205Z,59.62
2022-09-11T15:05:16.234Z,60.13
2022-09-11T15:07:45.619Z,60.21
2022-09-11T15:10:13.911Z,60.18
2022-09-11T15:12:41.135Z,59.61
2022-09-11T15:15:08.850Z,59.65
2022-09-11T15:17:38.195Z,59.54
2022-09-11T15:20:07.157Z,58.83
2022-09-11T15:22:35.233Z,59.49
2022-09-11T15:25:02.173Z,59.65
2022-09-11T15:27:28.991Z,59.71
2022-09-11T15:29:55.675Z,60.44
2022-09-11T15:32:22.386Z,60.71
2022-09-11T15:34:49.092Z,61.33
2022-09-11T15:37:18.861Z,61.87
2022-09-11T15:39:45.614Z,61.95
2022-09-11T15:42:12.917Z,61.79
2022-09-11T15:44:39.687Z,61.68
2022-09-11T15:47:06.984Z,63.53
2022-09-11T15:49:39.740Z,65.07
2022-09-11T15:52:06.697Z,66.58
2022-09-11T15:54:33.581Z,65.33
2022-09-11T15:57:00.615Z,68.27
2022-09-11T15:59:27.473Z,70.11
2022-09-11T16:01:54.560Z,71.19
2022-09-11T16:04:23.018Z,71.51
2022-09-11T16:06:50.340Z,71.96
2022-09-11T16:09:20.043Z,72.64
2022-09-11T16:11:50.813Z,73.42
2022-09-11T16:14:27.352Z,73.33
2022-09-11T16:16:56.373Z,74.40
2022-09-11T16:19:27.493Z,74.24
2022-09-11T16:21:56.564Z,74.88
2022-09-11T16:24:27.839Z,75.39
2022-09-11T16:26:55.934Z,75.59
2022-09-11T16:29:25.667Z,75.54
2022-09-11T16:31:52.624Z,74.99
2022-09-11T16:34:19.326Z,75.34
2022-09-11T16:36:46.230Z,74.76
2022-09-11T16:39:16.211Z,75.14
2022-09-11T16:41:43.352Z,75.91
2022-09-11T16:44:13.107Z,76.31
2022-09-11T16:46:40.904Z,75.21
2022-09-11T16:49:08.281Z,75.05
2022-09-11T16:51:35.500Z,75.40
2022-09-11T16:54:04.196Z,76.64
2022-09-11T16:56:30.978Z,76.72
2022-09-11T16:58:57.833Z,76.40
2022-09-11T17:01:26.292Z,77.22
2022-09-11T17:03:55.537Z,77.94
2022-09-11T17:06:24.203Z,78.67
2022-09-11T17:08:52.196Z,79.02
2022-09-11T17:11:21.830Z,79.74
2022-09-11T17:13:49.300Z,80.30
2022-09-11T17:16:25.738Z,80.63
2022-09-11T17:18:54.503Z,80.64
2022-09-11T17:21:23.860Z,81.00
2022-09-11T17:23:53.286Z,81.45
2022-09-11T17:26:21.022Z,81.23
2022-09-11T17:28:49.461Z,81.93
2022-09-11T17:31:19.292Z,81.51
2022-09-11T17:33:47.110Z,81.49
2022-09-11T17:36:17.288Z,81.81
2022-09-11T17:38:45.650Z,82.07
2022-09-11T17:41:12.857Z,82.47
2022-09-11T17:43:40.750Z,82.61
2022-09-11T17:46:10.494Z,82.90
2022-09-11T17:48:38.643Z,82.89
2022-09-11T17:51:10.751Z,82.65
2022-09-11T17:53:43.246Z,82.72
2022-09-11T17:56:16.643Z,82.61
2022-09-11T17:58:44.784Z,82.57
2022-09-11T18:01:16.752Z,82.84
2022-09-11T18:03:44.403Z,82.75
2022-09-11T18:06:37.706Z,82.55
2022-09-11T18:09:15.182Z,82.79
2022-09-11T18:11:44.578Z,82.82
2022-09-11T18:14:12.077Z,82.79
2022-09-11T18:16:39.332Z,82.84
2022-09-11T18:19:06.952Z,82.53
2022-09-11T18:21:38.340Z,82.37
2022-09-11T18:24:07.445Z,82.52
2022-09-11T18:26:40.918Z,82.37
2022-09-11T18:29:11.351Z,83.04
2022-09-11T18:31:40.830Z,82.88
2022-09-11T18:34:07.566Z,83.16
2022-09-11T18:36:34.203Z,83.58
2022-09-11T18:39:02.342Z,83.34
2022-09-11T18:41:31.480Z,83.45
2022-09-11T18:44:00.339Z,83.58
2022-09-11T18:46:28.039Z,83.81
2022-09-11T18:48:56.014Z,83.92
2022-09-11T18:51:22.761Z,83.77
2022-09-11T18:53:51.957Z,84.00
2022-09-11T18:56:19.847Z,84.30
2022-09-11T18:58:48.494Z,84.45
2022-09-11T19:01:18.408Z,84.24
2022-09-11T19:03:45.316Z,84.13
2022-09-11T19:06:14.565Z,84.12
2022-09-11T19:08:43.024Z,83.77
2022-09-11T19:11:17.954Z,83.37
2022-09-11T19:13:45.842Z,83.47
2022-09-11T19:16:14.106Z,83.61
2022-09-11T19:18:40.982Z,83.47
2022-09-11T19:21:12.100Z,83.45
2022-09-11T19:23:57.766Z,83.46
2022-09-11T19:26:33.720Z,83.14
2022-09-11T19:29:00.967Z,82.62
2022-09-11T19:31:29.795Z,82.63
2022-09-11T19:34:00.897Z,82.25
2022-09-11T19:36:30.042Z,82.04
2022-09-11T19:39:00.455Z,81.57
2022-09-11T19:41:37.395Z,81.63
2022-09-11T19:44:06.321Z,81.28
2022-09-11T19:46:34.706Z,81.12
2022-09-11T19:49:03.175Z,81.31
2022-09-11T19:51:33.085Z,81.19
2022-09-11T19:54:02.756Z,81.56
2022-09-11T19:56:31.279Z,81.46
2022-09-11T19:58:58.018Z,81.86
2022-09-11T20:01:26.256Z,81.75
2022-09-11T20:03:55.050Z,81.41
2022-09-11T20:06:24.332Z,81.36
2022-09-11T20:09:03.137Z,81.83
2022-09-11T20:11:39.640Z,82.00
2022-09-11T20:14:06.380Z,82.24
2022-09-11T20:16:33.344Z,81.88
2022-09-11T20:19:06.409Z,81.53
2022-09-11T20:21:35.332Z,81.55
2022-09-11T20:24:02.648Z,82.03
2022-09-11T20:26:31.279Z,82.00
2022-09-11T20:29:11.829Z,82.18
2022-09-11T20:31:46.327Z,82.22
2022-09-11T20:34:14.454Z,82.10
2022-09-11T20:36:41.082Z,82.10
2022-09-11T20:39:07.709Z,82.11
2022-09-11T20:41:35.863Z,82.18
2022-09-11T20:44:04.466Z,82.48
2022-09-11T20:46:31.432Z,82.39
2022-09-11T20:48:58.342Z,82.50
2022-09-11T20:51:25.240Z,82.21
2022-09-11T20:53:52.189Z,82.47
2022-09-11T20:56:23.552Z,82.42
2022-09-11T20:58:51.840Z,82.10
2022-09-11T21:01:22.163Z,81.64
2022-09-11T21:03:53.907Z,81.93
2022-09-11T21:06:25.811Z,82.00
2022-09-11T21:08:56.070Z,81.72
2022-09-11T21:11:25.848Z,81.50
2022-09-11T21:13:53.486Z,81.03
2022-09-11T21:16:20.675Z,80.80
2022-09-11T21:18:49.954Z,81.12
2022-09-11T21:21:17.417Z,80.71
2022-09-11T21:23:44.671Z,80.75
2022-09-11T21:26:13.846Z,80.64
2022-09-11T21:28:40.954Z,81.07
2022-09-11T21:31:07.968Z,81.04
2022-09-11T21:33:36.184Z,81.33
2022-09-11T21:36:04.029Z,81.02
2022-09-11T21:38:30.987Z,81.10
2022-09-11T21:40:59.355Z,81.28
2022-09-11T21:43:26.798Z,81.60
2022-09-11T21:45:54.220Z,81.42
2022-09-11T21:48:21.415Z,81.78
2022-09-11T21:50:48.402Z,81.82
2022-09-11T21:53:15.635Z,81.65
2022-09-11T21:55:45.121Z,81.94
2022-09-11T21:58:15.706Z,82.11
2022-09-11T22:00:43.352Z,82.08
2022-09-11T22:03:14.851Z,82.13
2022-09-11T22:05:43.432Z,82.00
2022-09-11T22:08:11.451Z,81.93
2022-09-11T22:10:45.624Z,81.57
2022-09-11T22:13:12.671Z,81.77
2022-09-11T22:15:41.247Z,81.60
2022-09-11T22:18:08.299Z,81.15
2022-09-11T22:20:37.679Z,81.28
2022-09-11T22:23:05.099Z,81.10
2022-09-11T22:25:31.958Z,81.14
2022-09-11T22:27:58.649Z,80.74
2022-09-11T22:30:25.533Z,80.91
2022-09-11T22:32:52.233Z,80.94
2022-09-11T22:35:18.981Z,81.31
2022-09-11T22:37:45.717Z,81.23
2022-09-11T22:40:12.565Z,81.25
2022-09-11T22:42:40.236Z,81.41
2022-09-11T22:45:07.761Z,81.79
2022-09-11T22:47:35.111Z,81.44
2022-09-11T22:50:01.997Z,81.62
2022-09-11T22:52:28.706Z,81.86
2022-09-11T22:54:55.483Z,81.92
2022-09-11T22:57:22.170Z,81.99
2022-09-11T22:59:49.159Z,81.73
2022-09-11T23:02:16.017Z,81.67
2022-09-11T23:05:05.550Z,81.60
2022-09-11T23:07:32.418Z,81.88
2022-09-11T23:09:59.208Z,81.59
2022-09-11T23:12:25.914Z,81.70
2022-09-11T23:14:54.251Z,81.90
2022-09-11T23:17:21.053Z,81.67
2022-09-11T23:19:48.726Z,81.75
2022-09-11T23:22:15.416Z,82.02
2022-09-11T23:24:42.105Z,82.31
2022-09-11T23:27:08.774Z,82.39
2022-09-11T23:29:35.839Z,82.32
2022-09-11T23:32:02.929Z,82.58
2022-09-11T23:34:29.783Z,82.34
2022-09-11T23:36:56.721Z,82.14
2022-09-11T23:39:23.401Z,82.24
2022-09-11T23:41:50.139Z,82.29
2022-09-11T23:44:17.606Z,82.12
2022-09-11T23:46:44.305Z,82.23
2022-09-11T23:49:12.284Z,82.52
2022-09-11T23:51:39.412Z,82.25
2022-09-11T23:54:06.257Z,82.10
2022-09-11T23:56:33.235Z,81.75
2022-09-11T23:59:00.146Z,81.83
